Time;durP1;ratioP1;P1;durP2;ratioP2;P2;SDS_P1;SDS_P2;PMS_P1;PMS_P2;Temp;Humidity;BMP_temperature;BMP_pressure;BME280_temperature;BME280_humidity;BME280_pressure;Samples;Min_cycle;Max_cycle;Signal;HPM_P1;HPM_P2
2021/12/24 00:00:57;;;;;;;8.97;8.73;;;8.40;99.90;;;;;;5124881;28;20229;-81
2021/12/24 00:03:25;;;;;;;9.10;8.80;;;8.40;99.90;;;;;;5123478;28;20303;-81
2021/12/24 00:05:54;;;;;;;9.13;8.83;;;8.40;99.90;;;;;;5122575;28;20590;-81
2021/12/24 00:08:24;;;;;;;9.17;8.87;;;8.40;99.90;;;;;;5123485;28;20225;-81
2021/12/24 00:11:03;;;;;;;9.40;9.10;;;8.40;99.90;;;;;;5123991;28;20284;-81
2021/12/24 00:13:46;;;;;;;9.20;8.90;;;8.50;99.90;;;;;;5127811;28;20248;-82
2021/12/24 00:16:22;;;;;;;9.23;8.93;;;8.50;99.90;;;;;;5129350;28;20253;-81
2021/12/24 00:36:04;;;;;;;9.47;9.17;;;8.50;99.90;;;;;;5122706;28;20229;-80
2021/12/24 00:38:34;;;;;;;9.23;8.93;;;8.50;99.90;;;;;;5122420;27;20283;-81
2021/12/24 00:41:05;;;;;;;9.30;9.00;;;8.50;99.90;;;;;;5122562;28;20221;-80
2021/12/24 00:43:36;;;;;;;9.13;8.83;;;8.50;99.90;;;;;;5122686;28;20300;-81
2021/12/24 00:46:03;;;;;;;9.40;9.10;;;8.50;99.90;;;;;;5122398;28;20229;-80
2021/12/24 00:48:32;;;;;;;9.60;9.30;;;8.50;99.90;;;;;;5122177;28;20282;-81
2021/12/24 00:51:19;;;;;;;9.40;9.10;;;8.50;99.90;;;;;;5122643;28;20233;-81
2021/12/24 00:56:33;;;;;;;9.23;8.93;;;8.50;99.90;;;;;;5122306;28;20300;-81
2021/12/24 00:59:08;;;;;;;8.97;8.77;;;8.50;99.90;;;;;;5123441;28;20302;-81
2021/12/24 01:01:37;;;;;;;9.10;8.80;;;8.60;99.90;;;;;;5122495;28;20232;-80
2021/12/24 01:04:06;;;;;;;9.30;9.00;;;8.60;99.90;;;;;;5122774;28;20235;-81
2021/12/24 01:06:35;;;;;;;9.20;8.90;;;8.60;99.90;;;;;;5121901;28;20229;-81
2021/12/24 01:09:04;;;;;;;9.23;8.93;;;8.60;99.90;;;;;;5122048;28;20244;-81
2021/12/24 01:11:35;;;;;;;9.30;9.00;;;8.50;99.90;;;;;;5122601;28;20306;-81
2021/12/24 01:14:21;;;;;;;9.30;9.00;;;8.50;99.90;;;;;;5179072;27;20521;-79
2021/12/24 01:16:57;;;;;;;9.30;9.00;;;8.50;99.90;;;;;;5160038;27;20219;-80
2021/12/24 01:19:26;;;;;;;9.43;9.13;;;8.60;99.90;;;;;;5159662;27;20237;-79
2021/12/24 01:24:44;;;;;;;9.63;9.33;;;8.50;99.90;;;;;;5159800;27;20242;-80
2021/12/24 01:27:23;;;;;;;9.47;9.17;;;8.50;99.90;;;;;;5159429;27;20273;-80
2021/12/24 01:30:04;;;;;;;9.33;9.03;;;8.50;99.90;;;;;;5159525;27;20216;-80
2021/12/24 01:38:17;;;;;;;9.27;8.97;;;8.50;99.90;;;;;;5158783;27;20275;-80
2021/12/24 01:41:05;;;;;;;9.50;9.20;;;8.50;99.90;;;;;;5157617;27;20224;-80
2021/12/24 01:43:31;;;;;;;9.47;9.17;;;8.50;99.90;;;;;;5158973;27;20361;-80
2021/12/24 01:46:05;;;;;;;9.50;9.20;;;8.50;99.90;;;;;;5165807;27;20219;-80
2021/12/24 01:48:42;;;;;;;9.40;9.10;;;8.50;99.90;;;;;;5166039;27;20227;-80
2021/12/24 01:51:30;;;;;;;9.50;9.20;;;8.50;99.90;;;;;;5165099;27;20223;-80
2021/12/24 01:54:04;;;;;;;9.50;9.20;;;8.50;99.90;;;;;;5161431;27;20285;-80
2021/12/24 01:56:33;;;;;;;9.50;9.20;;;8.50;99.90;;;;;;5159763;27;20304;-80
2021/12/24 01:59:02;;;;;;;9.40;9.10;;;8.40;99.90;;;;;;5159505;27;20245;-80
2021/12/24 02:01:42;;;;;;;9.80;9.50;;;8.40;99.90;;;;;;5162366;27;20223;-80
2021/12/24 02:04:13;;;;;;;9.53;9.23;;;8.40;99.90;;;;;;5163865;27;20216;-79
2021/12/24 02:07:02;;;;;;;9.60;9.30;;;8.40;99.90;;;;;;5163149;27;20239;-79
2021/12/24 02:09:30;;;;;;;9.53;9.23;;;8.40;99.90;;;;;;5161303;27;20292;-79
2021/12/24 02:11:59;;;;;;;9.27;8.97;;;8.40;99.90;;;;;;5156941;27;20270;-79
2021/12/24 02:14:34;;;;;;;9.60;9.30;;;8.40;99.90;;;;;;5157252;27;20215;-78
2021/12/24 02:17:25;;;;;;;9.50;9.20;;;8.40;99.90;;;;;;5156922;27;20267;-78
2021/12/24 02:28:24;;;;;;;9.20;8.90;;;8.50;99.90;;;;;;5144057;27;20227;-80
2021/12/24 02:30:53;;;;;;;9.37;9.07;;;8.50;99.90;;;;;;5143222;27;20231;-78
2021/12/24 02:33:20;;;;;;;9.27;8.97;;;8.50;99.90;;;;;;5146754;22;20237;-83
2021/12/24 02:35:50;;;;;;;9.63;9.33;;;8.50;99.90;;;;;;5101360;28;20222;-84
2021/12/24 02:38:18;;;;;;;9.50;9.20;;;8.50;99.90;;;;;;5103045;28;20268;-84
2021/12/24 02:40:46;;;;;;;9.60;9.30;;;8.50;99.90;;;;;;5103826;28;20260;-84
2021/12/24 02:43:17;;;;;;;9.40;9.10;;;8.50;99.90;;;;;;5106129;28;20242;-83
2021/12/24 02:45:47;;;;;;;9.77;9.47;;;8.50;99.90;;;;;;5105271;28;20285;-83
2021/12/24 02:53:59;;;;;;;9.40;9.10;;;8.60;99.90;;;;;;5110415;28;20242;-84
2021/12/24 02:56:31;;;;;;;9.33;9.03;;;8.60;99.90;;;;;;5108037;28;20236;-83
2021/12/24 02:59:02;;;;;;;9.50;9.20;;;8.60;99.90;;;;;;5108134;28;20656;-83
2021/12/24 03:01:35;;;;;;;9.40;9.10;;;8.70;99.90;;;;;;5106303;28;20321;-83
2021/12/24 03:04:03;;;;;;;9.10;8.83;;;8.70;99.90;;;;;;5105557;28;20248;-83
2021/12/24 03:06:34;;;;;;;9.30;9.00;;;8.70;99.90;;;;;;5105915;28;20217;-83
2021/12/24 03:09:05;;;;;;;9.30;9.00;;;8.80;99.90;;;;;;5105877;28;20253;-83
2021/12/24 03:11:33;;;;;;;9.30;9.00;;;8.80;99.90;;;;;;5105139;28;20229;-82
2021/12/24 03:14:02;;;;;;;9.23;8.93;;;8.80;99.90;;;;;;5105408;28;20241;-83
2021/12/24 03:16:30;;;;;;;9.30;9.00;;;8.90;99.90;;;;;;5105289;28;20221;-82
2021/12/24 03:18:58;;;;;;;9.30;9.00;;;8.90;99.90;;;;;;5105288;28;20251;-83
2021/12/24 03:21:31;;;;;;;9.10;8.80;;;9.00;99.90;;;;;;5104562;28;20222;-82
2021/12/24 03:26:46;;;;;;;9.30;9.00;;;9.10;99.90;;;;;;5104308;28;20228;-83
2021/12/24 03:29:17;;;;;;;9.00;8.80;;;9.10;99.90;;;;;;5103043;28;20237;-84
2021/12/24 03:31:46;;;;;;;9.20;8.90;;;9.10;99.90;;;;;;5101059;28;20283;-84
2021/12/24 03:34:20;;;;;;;9.03;8.80;;;9.10;99.90;;;;;;5100269;28;20245;-83
2021/12/24 03:36:49;;;;;;;9.17;8.87;;;9.10;99.90;;;;;;5101113;28;20226;-84
2021/12/24 03:39:18;;;;;;;9.03;8.80;;;9.10;99.90;;;;;;5101080;28;20237;-84
2021/12/24 03:41:46;;;;;;;9.10;8.80;;;9.10;99.90;;;;;;5102161;28;20229;-84
2021/12/24 03:44:16;;;;;;;9.30;9.00;;;9.10;99.90;;;;;;5101613;28;20303;-84
2021/12/24 03:46:53;;;;;;;9.00;8.70;;;9.10;99.90;;;;;;5103306;28;20245;-83
2021/12/24 03:49:32;;;;;;;9.33;9.03;;;9.10;99.90;;;;;;5102659;28;20316;-84
2021/12/24 03:52:14;;;;;;;9.37;9.07;;;9.10;99.90;;;;;;5103196;28;20252;-83
2021/12/24 03:54:58;;;;;;;9.33;9.03;;;9.10;99.90;;;;;;5102862;28;20226;-83
2021/12/24 03:57:28;;;;;;;9.50;9.20;;;9.10;99.90;;;;;;5102930;28;20230;-83
2021/12/24 03:59:59;;;;;;;9.40;9.10;;;9.10;99.90;;;;;;5101899;28;20233;-83
2021/12/24 04:02:27;;;;;;;9.53;9.23;;;9.00;99.90;;;;;;5101912;28;20229;-83
2021/12/24 04:04:55;;;;;;;9.20;8.90;;;9.00;99.90;;;;;;5104289;28;20214;-83
2021/12/24 04:07:23;;;;;;;9.43;9.13;;;9.00;99.90;;;;;;5107942;28;20248;-83
2021/12/24 04:10:00;;;;;;;9.50;9.20;;;9.10;99.90;;;;;;5108188;28;20225;-83
2021/12/24 04:12:27;;;;;;;9.40;9.10;;;9.10;99.90;;;;;;5114441;28;20237;-83
2021/12/24 04:14:56;;;;;;;9.23;8.93;;;9.10;99.90;;;;;;5113935;28;20256;-83
2021/12/24 04:17:23;;;;;;;9.40;9.10;;;9.10;99.90;;;;;;5110242;28;20205;-82
2021/12/24 04:25:25;;;;;;;9.13;8.83;;;9.10;99.90;;;;;;5102534;28;20225;-84
2021/12/24 04:27:53;;;;;;;9.40;9.10;;;9.10;99.90;;;;;;5104637;28;20214;-83
2021/12/24 04:30:26;;;;;;;9.40;9.10;;;9.10;99.90;;;;;;5105446;28;20225;-84
2021/12/24 04:33:00;;;;;;;9.40;9.10;;;9.10;99.90;;;;;;5100895;28;20264;-83
2021/12/24 04:35:42;;;;;;;9.20;8.90;;;9.10;99.90;;;;;;5102352;28;20222;-84
2021/12/24 04:52:01;;;;;;;9.50;9.20;;;9.10;99.90;;;;;;5108173;28;20220;-84
2021/12/24 05:03:03;;;;;;;9.20;8.90;;;9.10;99.90;;;;;;5098905;28;20232;-84
2021/12/24 05:05:42;;;;;;;9.20;8.90;;;9.00;99.90;;;;;;5099585;28;20240;-83
2021/12/24 05:08:21;;;;;;;9.00;8.77;;;9.00;99.90;;;;;;5099930;28;20236;-83
2021/12/24 05:10:51;;;;;;;9.30;9.00;;;9.00;99.90;;;;;;5098155;28;20250;-84
2021/12/24 05:13:23;;;;;;;9.50;9.20;;;9.00;99.90;;;;;;5097893;28;20299;-85
2021/12/24 05:15:57;;;;;;;9.33;9.03;;;8.90;99.90;;;;;;5098631;28;20229;-86
2021/12/24 05:18:48;;;;;;;9.40;9.10;;;8.90;99.90;;;;;;5097717;28;20224;-85
2021/12/24 05:21:33;;;;;;;9.50;9.20;;;8.90;99.90;;;;;;5097376;28;20221;-85
2021/12/24 05:24:01;;;;;;;9.60;9.30;;;8.90;99.90;;;;;;5099134;28;20233;-84
2021/12/24 05:26:29;;;;;;;9.20;8.90;;;8.90;99.90;;;;;;5099124;28;20642;-84
2021/12/24 05:28:59;;;;;;;9.10;8.80;;;8.90;99.90;;;;;;5098658;28;20260;-84
2021/12/24 05:31:28;;;;;;;9.30;9.00;;;8.80;99.90;;;;;;5100053;28;20275;-83
2021/12/24 05:33:56;;;;;;;9.20;8.90;;;8.90;99.90;;;;;;5099546;28;21004;-83
2021/12/24 05:36:24;;;;;;;9.40;9.10;;;8.80;99.90;;;;;;5102655;28;20302;-83
2021/12/24 05:38:52;;;;;;;9.30;9.00;;;8.90;99.90;;;;;;5100497;28;20234;-84
2021/12/24 05:41:21;;;;;;;9.30;9.00;;;8.90;99.90;;;;;;5102408;28;20233;-84
2021/12/24 05:43:49;;;;;;;9.00;8.73;;;8.90;99.90;;;;;;5100619;28;20297;-84
2021/12/24 05:46:19;;;;;;;9.20;8.90;;;8.80;99.90;;;;;;5098101;28;20226;-85
2021/12/24 05:48:47;;;;;;;9.20;8.90;;;8.80;99.90;;;;;;5097433;28;20244;-86
2021/12/24 05:51:15;;;;;;;9.20;8.90;;;8.80;99.90;;;;;;5098183;28;20299;-85
2021/12/24 05:53:43;;;;;;;9.10;8.80;;;8.80;99.90;;;;;;5099305;28;20257;-83
2021/12/24 05:56:11;;;;;;;8.90;8.70;;;8.90;99.90;;;;;;5100628;28;20704;-83
2021/12/24 05:58:39;;;;;;;9.23;8.93;;;8.80;99.90;;;;;;5101750;28;20264;-84
2021/12/24 06:01:07;;;;;;;9.50;9.20;;;8.80;99.90;;;;;;5104609;28;20213;-84
2021/12/24 06:03:36;;;;;;;9.60;9.30;;;8.80;99.90;;;;;;5104221;28;20336;-83
2021/12/24 06:06:04;;;;;;;9.40;9.10;;;8.80;99.90;;;;;;5104670;28;20252;-83
2021/12/24 06:08:31;;;;;;;9.50;9.20;;;8.80;99.90;;;;;;5104130;28;20233;-83
2021/12/24 06:10:59;;;;;;;9.30;9.00;;;8.80;99.90;;;;;;5102301;28;20217;-84
2021/12/24 06:13:28;;;;;;;9.47;9.17;;;8.80;99.90;;;;;;5103335;28;20704;-83
2021/12/24 06:15:56;;;;;;;9.30;9.00;;;8.80;99.90;;;;;;5104404;28;20320;-83
2021/12/24 06:18:26;;;;;;;9.20;8.90;;;8.80;99.90;;;;;;5104800;28;20233;-83
2021/12/24 06:20:58;;;;;;;9.40;9.10;;;8.80;99.90;;;;;;5104615;28;20232;-82
2021/12/24 06:23:27;;;;;;;9.30;9.00;;;8.80;99.90;;;;;;5104497;28;20267;-83
2021/12/24 06:25:58;;;;;;;9.17;8.87;;;8.80;99.90;;;;;;5100503;28;20225;-83
2021/12/24 06:28:27;;;;;;;9.10;8.80;;;8.80;99.90;;;;;;5105469;28;20233;-83
2021/12/24 06:30:56;;;;;;;9.17;8.87;;;8.70;99.90;;;;;;5105219;28;20229;-82
2021/12/24 06:33:25;;;;;;;9.20;8.90;;;8.70;99.90;;;;;;5105438;28;20333;-83
2021/12/24 06:35:56;;;;;;;9.33;9.03;;;8.80;99.90;;;;;;5105762;28;20225;-83
2021/12/24 06:38:24;;;;;;;8.90;8.70;;;8.70;99.90;;;;;;5107217;28;20281;-83
2021/12/24 06:40:53;;;;;;;8.87;8.67;;;8.70;99.90;;;;;;5118426;28;20232;-84
2021/12/24 06:43:20;;;;;;;8.90;8.70;;;8.70;99.90;;;;;;5117232;28;20245;-84
2021/12/24 06:45:49;;;;;;;9.40;9.10;;;8.70;99.90;;;;;;5117617;28;20237;-82
2021/12/24 06:48:20;;;;;;;9.40;9.10;;;8.70;99.90;;;;;;5118044;28;20213;-82
2021/12/24 06:50:50;;;;;;;9.33;9.03;;;8.70;99.90;;;;;;5117774;28;20217;-83
2021/12/24 06:53:20;;;;;;;9.10;8.80;;;8.70;99.90;;;;;;5116957;27;20248;-83
2021/12/24 06:55:48;;;;;;;9.23;8.93;;;8.70;99.90;;;;;;5107655;28;20279;-85
2021/12/24 06:58:15;;;;;;;9.30;9.00;;;8.70;99.90;;;;;;5103978;28;20277;-85
2021/12/24 07:00:44;;;;;;;9.30;9.00;;;8.70;99.90;;;;;;5106047;28;20221;-83
2021/12/24 07:03:12;;;;;;;9.30;9.00;;;8.70;99.90;;;;;;5108841;28;20241;-85
2021/12/24 07:05:40;;;;;;;9.33;9.03;;;8.70;99.90;;;;;;5109777;28;20233;-84
2021/12/24 07:08:08;;;;;;;9.30;9.00;;;8.70;99.90;;;;;;5106179;28;20234;-85
2021/12/24 07:10:38;;;;;;;9.23;8.93;;;8.70;99.90;;;;;;5106329;28;20230;-84
2021/12/24 07:13:09;;;;;;;9.30;9.00;;;8.70;99.90;;;;;;5105095;28;20237;-85
2021/12/24 07:15:37;;;;;;;9.23;8.93;;;8.70;99.90;;;;;;5100467;28;20328;-85
2021/12/24 07:18:05;;;;;;;9.37;9.07;;;8.70;99.90;;;;;;5101544;28;20229;-85
2021/12/24 07:20:33;;;;;;;9.10;8.80;;;8.70;99.90;;;;;;5102561;28;20225;-84
2021/12/24 07:23:01;;;;;;;9.40;9.10;;;8.70;99.90;;;;;;5103032;28;20241;-84
2021/12/24 07:25:29;;;;;;;9.30;9.00;;;8.70;99.90;;;;;;5103334;28;20252;-84
2021/12/24 07:27:58;;;;;;;9.43;9.13;;;8.70;99.90;;;;;;5107161;28;20244;-83
2021/12/24 07:30:26;;;;;;;9.10;8.80;;;8.70;99.90;;;;;;5103869;28;20209;-84
2021/12/24 07:32:54;;;;;;;9.30;9.00;;;8.70;99.90;;;;;;5102372;28;20287;-84
2021/12/24 07:35:22;;;;;;;9.13;8.83;;;8.70;99.90;;;;;;5101493;28;20240;-85
2021/12/24 07:37:50;;;;;;;9.30;9.00;;;8.70;99.90;;;;;;5103313;28;20231;-84
2021/12/24 07:40:19;;;;;;;9.30;9.00;;;8.70;99.90;;;;;;5101593;28;20225;-84
2021/12/24 07:42:57;;;;;;;8.97;8.67;;;8.70;99.90;;;;;;5114443;28;20287;-83
2021/12/24 07:45:25;;;;;;;8.80;8.60;;;8.70;99.90;;;;;;5122537;27;20236;-84
2021/12/24 07:48:07;;;;;;;8.80;8.60;;;8.70;99.90;;;;;;5121907;27;20236;-84
2021/12/24 07:53:21;;;;;;;9.30;9.00;;;8.70;99.90;;;;;;5122878;28;20417;-85
2021/12/24 07:55:49;;;;;;;8.97;8.77;;;8.70;99.90;;;;;;5125996;27;20320;-83
2021/12/24 07:58:19;;;;;;;9.20;8.90;;;8.70;99.90;;;;;;5125970;27;20396;-82
2021/12/24 08:00:48;;;;;;;9.20;8.90;;;8.70;99.90;;;;;;5124461;27;20227;-84
2021/12/24 08:03:19;;;;;;;9.30;9.00;;;8.70;99.90;;;;;;5122476;27;20228;-84
2021/12/24 08:06:00;;;;;;;8.90;8.70;;;8.70;99.90;;;;;;5122126;27;20228;-85
2021/12/24 08:08:28;;;;;;;8.70;8.50;;;8.70;99.90;;;;;;5120392;27;20225;-86
2021/12/24 08:10:56;;;;;;;8.80;8.60;;;8.70;99.90;;;;;;5123092;27;20282;-85
2021/12/24 08:13:25;;;;;;;8.80;8.60;;;8.70;99.90;;;;;;5123282;27;20229;-87
2021/12/24 08:15:54;;;;;;;8.90;8.70;;;8.70;99.90;;;;;;5122846;27;20236;-84
2021/12/24 08:18:22;;;;;;;8.73;8.53;;;8.70;99.90;;;;;;5124025;27;20247;-85
2021/12/24 08:20:50;;;;;;;8.90;8.70;;;8.70;99.90;;;;;;5128718;27;20220;-88
2021/12/24 08:23:18;;;;;;;8.90;8.70;;;8.70;99.90;;;;;;5139866;27;20239;-87
2021/12/24 08:25:47;;;;;;;9.20;8.90;;;8.70;99.90;;;;;;5136226;27;20239;-84
2021/12/24 08:28:14;;;;;;;8.60;8.40;;;8.70;99.90;;;;;;5136198;27;20240;-87
2021/12/24 08:30:44;;;;;;;8.97;8.77;;;8.70;99.90;;;;;;5123999;27;20221;-88
2021/12/24 08:33:15;;;;;;;8.90;8.70;;;8.70;99.90;;;;;;5121630;27;20232;-88
2021/12/24 08:35:43;;;;;;;8.50;8.30;;;8.70;99.90;;;;;;5122631;27;20233;-87
2021/12/24 08:38:11;;;;;;;8.83;8.63;;;8.70;99.90;;;;;;5123389;27;20229;-89
2021/12/24 08:40:39;;;;;;;8.70;8.50;;;8.70;99.90;;;;;;5120611;27;20248;-88
2021/12/24 08:43:07;;;;;;;8.70;8.50;;;8.70;99.90;;;;;;5120066;27;20255;-85
2021/12/24 08:45:34;;;;;;;8.90;8.70;;;8.70;99.90;;;;;;5120268;27;20232;-89
2021/12/24 08:48:05;;;;;;;8.90;8.70;;;8.70;99.90;;;;;;5121151;27;20235;-88
2021/12/24 08:50:33;;;;;;;8.80;8.60;;;8.70;99.90;;;;;;5123435;27;20224;-89
2021/12/24 08:53:01;;;;;;;8.63;8.43;;;8.70;99.90;;;;;;5132374;27;20240;-90
2021/12/24 08:55:30;;;;;;;8.43;8.23;;;8.70;99.90;;;;;;5122511;27;20232;-90
2021/12/24 08:57:58;;;;;;;8.60;8.40;;;8.70;99.90;;;;;;5121527;27;20255;-90
2021/12/24 09:00:29;;;;;;;8.80;8.60;;;8.70;99.90;;;;;;5123236;27;20238;-92
2021/12/24 09:03:10;;;;;;;8.50;8.30;;;8.70;99.90;;;;;;5123511;27;20220;-90
2021/12/24 09:05:41;;;;;;;9.07;8.80;;;8.70;99.90;;;;;;5123443;28;20319;-90
2021/12/24 09:08:14;;;;;;;9.37;9.07;;;8.70;99.90;;;;;;5120770;27;20303;-89
2021/12/24 09:10:42;;;;;;;9.43;9.13;;;8.70;99.90;;;;;;5122428;27;20276;-89
2021/12/24 09:13:10;;;;;;;9.17;8.87;;;8.70;99.90;;;;;;5145720;22;20247;-81
2021/12/24 09:15:40;;;;;;;9.17;8.87;;;8.60;99.90;;;;;;5124165;28;20237;-80
2021/12/24 09:18:10;;;;;;;9.23;8.93;;;8.60;99.90;;;;;;5123870;28;20220;-80
2021/12/24 09:20:42;;;;;;;9.70;9.40;;;8.60;99.90;;;;;;5123575;27;20324;-81
2021/12/24 09:23:11;;;;;;;9.80;9.50;;;8.60;99.90;;;;;;5121626;28;20245;-78
2021/12/24 09:25:41;;;;;;;9.90;9.60;;;8.50;99.90;;;;;;5122974;27;20309;-81
2021/12/24 09:28:09;;;;;;;9.50;9.20;;;8.50;99.90;;;;;;5120711;27;20504;-81
2021/12/24 09:30:38;;;;;;;9.67;9.37;;;8.50;99.90;;;;;;5106173;27;20226;-78
2021/12/24 09:33:18;;;;;;;9.33;9.03;;;8.40;99.90;;;;;;5105323;27;20272;-79
2021/12/24 09:35:46;;;;;;;9.27;8.97;;;8.40;99.90;;;;;;5123195;27;20301;-79
2021/12/24 09:38:14;;;;;;;9.83;9.53;;;8.40;99.90;;;;;;5125249;28;20223;-82
2021/12/24 09:40:43;;;;;;;9.70;9.40;;;8.40;99.90;;;;;;5125219;27;20252;-81
2021/12/24 09:43:11;;;;;;;9.20;8.90;;;8.30;99.90;;;;;;5126786;27;20282;-84
2021/12/24 09:45:40;;;;;;;9.40;9.10;;;8.30;99.90;;;;;;5128838;27;20231;-82
2021/12/24 09:48:08;;;;;;;9.20;8.90;;;8.30;99.90;;;;;;5130828;27;20231;-82
2021/12/24 09:50:43;;;;;;;9.27;8.97;;;8.20;99.90;;;;;;5131848;27;20244;-83
2021/12/24 09:53:21;;;;;;;9.07;8.77;;;8.20;99.90;;;;;;5131825;27;20256;-83
2021/12/24 09:56:05;;;;;;;9.10;8.80;;;8.20;99.90;;;;;;5129132;27;20331;-82
2021/12/24 09:58:34;;;;;;;9.00;8.70;;;8.20;99.90;;;;;;5123140;27;20239;-81
2021/12/24 10:06:12;;;;;;;8.60;8.40;;;8.10;99.90;;;;;;5062241;28;20231;-81
2021/12/24 10:08:43;;;;;;;8.60;8.40;;;8.10;99.90;;;;;;5065764;28;20289;-80
2021/12/24 10:11:13;;;;;;;8.80;8.60;;;8.00;99.90;;;;;;5065269;28;20255;-80
2021/12/24 10:13:46;;;;;;;8.77;8.57;;;8.00;99.90;;;;;;5043971;28;20247;-80
2021/12/24 10:16:21;;;;;;;8.20;8.00;;;8.00;99.90;;;;;;5044524;28;20295;-80
2021/12/24 10:18:54;;;;;;;8.10;7.90;;;8.00;99.90;;;;;;5043667;28;20265;-79
2021/12/24 10:21:28;;;;;;;8.70;8.50;;;8.00;99.90;;;;;;5051149;28;20265;-79
2021/12/24 10:24:01;;;;;;;8.87;8.60;;;8.00;99.90;;;;;;5047321;28;20241;-80
2021/12/24 10:26:34;;;;;;;8.80;8.60;;;8.00;99.90;;;;;;5045547;28;20239;-80
2021/12/24 10:29:11;;;;;;;8.97;8.67;;;7.90;99.90;;;;;;5044065;28;20238;-83
2021/12/24 10:31:53;;;;;;;8.93;8.63;;;7.90;99.90;;;;;;5042554;28;20322;-82
2021/12/24 10:35:20;;;;;;;8.37;8.17;;;7.90;99.90;;;;;;5042682;28;20282;-86
2021/12/24 10:38:20;;;;;;;8.20;8.00;;;7.90;99.90;;;;;;5022612;28;20224;-85
2021/12/24 10:43:49;;;;;;;8.37;8.17;;;7.90;99.90;;;;;;5169368;22;21110;-83
2021/12/24 10:51:19;;;;;;;8.30;8.10;;;7.90;99.90;;;;;;4935798;28;20289;-80
2021/12/24 10:58:46;;;;;;;7.60;7.40;;;7.80;99.90;;;;;;4962702;28;20283;-81
2021/12/24 11:06:02;;;;;;;7.80;7.60;;;7.80;99.90;;;;;;4962782;28;20242;-81
2021/12/24 11:08:57;;;;;;;7.90;7.70;;;7.80;99.90;;;;;;4961949;28;20286;-81
2021/12/24 11:14:24;;;;;;;7.70;7.50;;;7.80;99.90;;;;;;4967953;28;20242;-83
2021/12/24 11:16:51;;;;;;;7.77;7.57;;;7.90;99.90;;;;;;4988573;28;20248;-83
2021/12/24 11:19:26;;;;;;;7.70;7.50;;;7.90;99.90;;;;;;5012675;28;20231;-81
2021/12/24 11:22:05;;;;;;;7.50;7.30;;;7.90;99.90;;;;;;5068854;28;20317;-82
2021/12/24 11:24:33;;;;;;;7.73;7.53;;;7.90;99.90;;;;;;5067607;28;20715;-82
2021/12/24 11:27:03;;;;;;;7.70;7.50;;;7.90;99.90;;;;;;5067602;28;20302;-83
2021/12/24 11:29:32;;;;;;;7.50;7.30;;;7.90;99.90;;;;;;5065750;28;20310;-82
2021/12/24 11:32:03;;;;;;;7.40;7.20;;;7.80;99.90;;;;;;5065361;28;20219;-82
2021/12/24 11:34:31;;;;;;;7.67;7.47;;;7.80;99.90;;;;;;5065403;28;20237;-83
2021/12/24 11:36:59;;;;;;;7.70;7.50;;;7.70;99.90;;;;;;5065060;28;20230;-83
2021/12/24 11:39:28;;;;;;;7.80;7.60;;;7.70;99.90;;;;;;5064082;28;20242;-81
2021/12/24 11:41:56;;;;;;;7.73;7.53;;;7.70;99.90;;;;;;5062296;28;20226;-82
2021/12/24 11:44:28;;;;;;;7.87;7.67;;;7.70;99.90;;;;;;5061642;28;20235;-82
2021/12/24 11:46:58;;;;;;;7.80;7.60;;;7.70;99.90;;;;;;5062400;28;20234;-83
2021/12/24 11:49:28;;;;;;;7.70;7.50;;;7.70;99.90;;;;;;5055980;28;20230;-83
2021/12/24 11:52:01;;;;;;;7.73;7.53;;;7.70;99.90;;;;;;5060194;28;20227;-83
2021/12/24 11:54:29;;;;;;;7.27;7.07;;;7.70;99.90;;;;;;5060273;28;20338;-85
2021/12/24 11:57:04;;;;;;;7.70;7.50;;;7.70;99.90;;;;;;5059340;28;20285;-86
2021/12/24 11:59:38;;;;;;;7.70;7.50;;;7.70;99.90;;;;;;5059455;28;20245;-85
2021/12/24 12:02:08;;;;;;;7.90;7.70;;;7.70;99.90;;;;;;5060662;28;20238;-85
2021/12/24 12:04:41;;;;;;;7.80;7.60;;;7.60;99.90;;;;;;5059927;28;20231;-84
2021/12/24 12:07:26;;;;;;;7.90;7.70;;;7.70;99.90;;;;;;5060320;28;20714;-86
2021/12/24 12:09:58;;;;;;;8.00;7.80;;;7.70;99.90;;;;;;5059766;28;20238;-84
2021/12/24 12:12:37;;;;;;;7.90;7.70;;;7.60;99.90;;;;;;5061940;28;20289;-84
2021/12/24 12:15:31;;;;;;;7.60;7.40;;;7.60;99.90;;;;;;5062076;28;20230;-83
2021/12/24 12:18:04;;;;;;;7.80;7.60;;;7.70;99.90;;;;;;5061640;28;20231;-83
2021/12/24 12:20:47;;;;;;;7.50;7.30;;;7.60;99.90;;;;;;5062342;28;20227;-83
2021/12/24 12:27:05;;;;;;;8.13;7.93;;;7.60;99.90;;;;;;5039131;28;20327;-84
2021/12/24 12:29:46;;;;;;;8.17;7.97;;;7.60;99.90;;;;;;5041315;28;20234;-82
2021/12/24 12:32:43;;;;;;;8.30;8.10;;;7.60;99.90;;;;;;5040481;28;20291;-83
2021/12/24 12:35:14;;;;;;;8.30;8.10;;;7.60;99.90;;;;;;5039479;28;20228;-81
2021/12/24 12:38:26;;;;;;;8.27;8.07;;;7.60;99.90;;;;;;5039783;28;20235;-82
2021/12/24 12:41:31;;;;;;;8.10;7.90;;;7.60;99.90;;;;;;5041320;28;20224;-83
2021/12/24 12:44:11;;;;;;;8.10;7.90;;;7.60;99.90;;;;;;5039006;28;20223;-82
2021/12/24 12:46:43;;;;;;;8.03;7.83;;;7.70;99.90;;;;;;5039155;28;20215;-85
2021/12/24 12:49:34;;;;;;;7.80;7.60;;;7.70;99.90;;;;;;5039352;28;20294;-83
2021/12/24 12:52:06;;;;;;;7.90;7.70;;;7.60;99.90;;;;;;5039335;28;20270;-82
2021/12/24 12:58:23;;;;;;;8.20;8.00;;;7.70;99.90;;;;;;5031236;28;20326;-83
2021/12/24 13:01:22;;;;;;;8.10;7.90;;;7.70;99.90;;;;;;5026734;28;20243;-83
2021/12/24 13:04:56;;;;;;;;;;;;;;;;;;;;;
2021/12/24 13:08:01;;;;;;;8.20;8.00;;;7.80;99.90;;;;;;5058989;28;20226;-83
2021/12/24 13:10:34;;;;;;;8.17;7.97;;;7.80;99.90;;;;;;5066703;28;20223;-80
2021/12/24 13:13:22;;;;;;;7.93;7.73;;;7.80;99.90;;;;;;5061744;28;20234;-84
2021/12/24 13:16:17;;;;;;;7.90;7.70;;;7.80;99.90;;;;;;5054326;28;20231;-83
2021/12/24 13:30:26;;;;;;;8.30;8.10;;;7.70;99.90;;;;;;4926940;28;20323;-82
2021/12/24 13:32:58;;;;;;;8.13;7.93;;;7.60;99.90;;;;;;4966521;28;20223;-82
2021/12/24 13:42:45;;;;;;;8.10;7.90;;;7.60;99.90;;;;;;5038567;28;20350;-81
2021/12/24 13:49:12;;;;;;;8.00;7.80;;;7.60;99.90;;;;;;5027722;28;20245;-80
2021/12/24 13:56:09;;;;;;;8.00;7.80;;;7.60;99.90;;;;;;5041169;28;20208;-81
2021/12/24 13:59:03;;;;;;;8.10;7.90;;;7.60;99.90;;;;;;5036683;28;20231;-81
2021/12/24 14:01:37;;;;;;;8.20;8.00;;;7.60;99.90;;;;;;5039965;28;20243;-81
2021/12/24 14:04:09;;;;;;;8.10;7.90;;;7.60;99.90;;;;;;5039054;28;20338;-81
2021/12/24 14:06:42;;;;;;;8.20;8.00;;;7.60;99.90;;;;;;5039065;28;20246;-80
2021/12/24 14:12:15;;;;;;;7.70;7.50;;;7.50;99.90;;;;;;5037048;28;20235;-83
2021/12/24 14:14:55;;;;;;;8.10;7.90;;;7.60;99.90;;;;;;5038520;28;20235;-80
2021/12/24 14:21:54;;;;;;;8.20;8.00;;;7.60;99.90;;;;;;5016309;28;20220;-81
2021/12/24 14:24:39;;;;;;;7.90;7.70;;;7.70;99.90;;;;;;5028243;28;20227;-81
2021/12/24 14:27:12;;;;;;;8.17;7.97;;;7.60;99.90;;;;;;5040732;28;20243;-81
2021/12/24 15:03:41;;;;;;;8.40;8.20;;;7.60;99.90;;;;;;5266374;22;20306;-81
2021/12/24 15:06:18;;;;;;;8.50;8.30;;;7.60;99.90;;;;;;5035409;28;20235;-79
2021/12/24 15:08:50;;;;;;;8.40;8.20;;;7.60;99.90;;;;;;5035186;28;20224;-82
2021/12/24 15:11:23;;;;;;;8.47;8.27;;;7.70;99.90;;;;;;5041107;28;20239;-82
2021/12/24 15:13:54;;;;;;;8.30;8.10;;;7.70;99.90;;;;;;5039712;28;20319;-82
2021/12/24 15:16:25;;;;;;;8.80;8.50;;;7.80;99.90;;;;;;5031888;28;20394;-81
2021/12/24 15:18:58;;;;;;;8.20;8.00;;;7.80;99.90;;;;;;5121644;22;20232;-84
2021/12/24 15:21:29;;;;;;;8.40;8.20;;;7.90;99.90;;;;;;5041223;28;20231;-83
2021/12/24 15:24:01;;;;;;;8.20;8.00;;;7.80;99.90;;;;;;5048080;28;20250;-84
2021/12/24 15:26:32;;;;;;;8.43;8.23;;;7.90;99.90;;;;;;5030787;28;20240;-86
2021/12/24 15:29:04;;;;;;;8.50;8.30;;;7.80;99.90;;;;;;5035319;28;20239;-89
2021/12/24 15:31:33;;;;;;;8.67;8.47;;;7.80;99.90;;;;;;5044797;28;20251;-84
2021/12/24 15:34:03;;;;;;;8.80;8.50;;;7.70;99.90;;;;;;5048173;28;20227;-83
2021/12/24 15:36:32;;;;;;;8.30;8.10;;;7.70;99.90;;;;;;5045140;28;20231;-82
2021/12/24 15:39:00;;;;;;;7.90;7.70;;;7.60;99.90;;;;;;5035040;28;20291;-85
2021/12/24 15:41:29;;;;;;;8.00;7.80;;;7.60;99.90;;;;;;5030515;28;20244;-82
2021/12/24 15:44:02;;;;;;;8.00;7.80;;;7.60;99.90;;;;;;5018780;28;20220;-85
2021/12/24 15:46:30;;;;;;;8.20;8.00;;;7.50;99.90;;;;;;5039171;28;20227;-85
2021/12/24 15:49:03;;;;;;;8.00;7.80;;;7.50;99.90;;;;;;5045801;28;20265;-83
2021/12/24 15:51:31;;;;;;;8.00;7.80;;;7.50;99.90;;;;;;5047529;28;20238;-82
2021/12/24 15:53:59;;;;;;;7.87;7.67;;;7.50;99.90;;;;;;5044344;28;20674;-85
2021/12/24 15:56:27;;;;;;;7.77;7.57;;;7.60;99.90;;;;;;5043988;28;20235;-85
2021/12/24 15:58:56;;;;;;;8.10;7.90;;;7.60;99.90;;;;;;5043718;28;20239;-85
2021/12/24 16:01:24;;;;;;;8.50;8.30;;;7.60;99.90;;;;;;5042719;28;20285;-85
2021/12/24 16:03:52;;;;;;;8.60;8.40;;;7.50;99.90;;;;;;5043373;28;20286;-85
2021/12/24 16:06:22;;;;;;;8.47;8.27;;;7.50;99.90;;;;;;5046030;28;20231;-84
2021/12/24 16:08:50;;;;;;;7.90;7.70;;;7.50;99.90;;;;;;5012625;28;20245;-83
2021/12/24 16:11:18;;;;;;;7.80;7.60;;;7.50;99.90;;;;;;5004090;28;20303;-87
2021/12/24 16:13:46;;;;;;;7.93;7.73;;;7.60;99.90;;;;;;5002913;28;20225;-84
2021/12/24 16:16:15;;;;;;;8.00;7.80;;;7.60;99.90;;;;;;5006190;28;20236;-85
2021/12/24 16:18:43;;;;;;;8.10;7.90;;;7.60;99.90;;;;;;5024095;28;20250;-82
2021/12/24 16:21:11;;;;;;;7.97;7.77;;;7.60;99.90;;;;;;5046509;28;20228;-86
2021/12/24 16:23:41;;;;;;;8.00;7.80;;;7.60;99.90;;;;;;5024102;28;20251;-84